createdAt,value
2022-08-03T00:02:44.087Z,12.10
2022-08-03T00:06:46.614Z,8.45
2022-08-03T00:10:49.027Z,12.73
2022-08-03T00:14:51.551Z,14.43
2022-08-03T00:18:53.886Z,10.82
2022-08-03T00:22:56.704Z,13.68
2022-08-03T00:26:59.166Z,12.07
2022-08-03T00:31:01.420Z,11.70
2022-08-03T00:35:08.346Z,11.48
2022-08-03T00:39:12.955Z,13.48
2022-08-03T00:43:14.934Z,9.18
2022-08-03T00:47:17.258Z,11.95
2022-08-03T00:51:21.915Z,11.30
2022-08-03T00:55:24.820Z,11.35
2022-08-03T00:59:27.531Z,11.95
2022-08-03T01:03:29.995Z,11.50
2022-08-03T01:08:10.528Z,12.95
2022-08-03T01:12:48.188Z,10.95
2022-08-03T01:16:57.285Z,10.48
2022-08-03T01:21:07.846Z,9.80
2022-08-03T01:25:36.908Z,10.63
2022-08-03T01:29:39.083Z,10.85
2022-08-03T01:33:44.205Z,12.77
2022-08-03T01:37:56.302Z,9.95
2022-08-03T01:42:22.037Z,12.40
2022-08-03T01:46:47.732Z,9.75
2022-08-03T01:50:53.308Z,9.65
2022-08-03T01:54:56.642Z,8.93
2022-08-03T01:59:02.367Z,9.48
2022-08-03T02:03:07.064Z,11.27
2022-08-03T02:07:10.804Z,12.30
2022-08-03T02:11:13.792Z,12.63
2022-08-03T02:15:38.252Z,9.55
2022-08-03T02:19:43.415Z,11.40
2022-08-03T02:23:45.515Z,10.48
2022-08-03T02:28:02.221Z,12.77
2022-08-03T02:32:04.814Z,13.48
2022-08-03T02:36:28.574Z,9.82
2022-08-03T02:40:34.085Z,9.35
2022-08-03T02:44:38.487Z,9.93
2022-08-03T02:48:41.942Z,11.82
2022-08-03T02:52:47.819Z,12.00
2022-08-03T02:56:52.252Z,14.70
2022-08-03T03:00:56.000Z,9.70
2022-08-03T03:05:52.989Z,11.02
2022-08-03T03:09:22.773Z,11.38
2022-08-03T03:13:27.212Z,9.52
2022-08-03T03:17:31.453Z,12.02
2022-08-03T03:21:34.117Z,13.80
2022-08-03T03:25:37.617Z,17.02
2022-08-03T03:29:41.226Z,12.43
2022-08-03T03:33:44.277Z,12.15
2022-08-03T03:37:46.886Z,11.85
2022-08-03T03:41:49.579Z,13.20
2022-08-03T03:45:53.733Z,13.02
2022-08-03T03:50:36.015Z,14.80
2022-08-03T03:54:42.777Z,15.80
2022-08-03T03:58:45.178Z,14.35
2022-08-03T04:02:47.835Z,16.23
2022-08-03T04:07:09.122Z,16.80
2022-08-03T04:11:20.398Z,18.58
2022-08-03T04:15:34.148Z,26.17
2022-08-03T04:19:57.743Z,32.05
2022-08-03T04:24:03.885Z,23.65
2022-08-03T04:28:31.262Z,22.63
2022-08-03T04:32:37.436Z,23.25
2022-08-03T04:36:48.679Z,30.35
2022-08-03T04:40:52.861Z,31.42
2022-08-03T04:45:01.092Z,32.85
2022-08-03T04:49:05.751Z,42.80
2022-08-03T04:53:09.109Z,46.20
2022-08-03T04:57:22.340Z,40.97
2022-08-03T05:01:25.924Z,31.73
2022-08-03T05:05:50.291Z,34.80
2022-08-03T05:09:52.997Z,31.40
2022-08-03T05:14:03.974Z,27.42
2022-08-03T05:18:09.537Z,28.95
2022-08-03T05:22:14.605Z,27.98
2022-08-03T05:26:17.223Z,33.80
2022-08-03T05:30:31.239Z,27.45
2022-08-03T05:34:37.891Z,31.38
2022-08-03T05:38:40.180Z,26.65
2022-08-03T05:42:42.244Z,29.23
2022-08-03T05:46:44.540Z,25.10
2022-08-03T05:50:46.566Z,24.27
2022-08-03T05:54:55.492Z,33.22
2022-08-03T05:59:11.360Z,22.38
2022-08-03T06:03:22.225Z,32.45
2022-08-03T06:07:24.660Z,22.88
2022-08-03T06:11:27.011Z,23.55
2022-08-03T06:15:29.397Z,18.67
2022-08-03T06:19:31.865Z,25.25
2022-08-03T06:23:54.356Z,24.50
2022-08-03T06:27:57.185Z,27.52
2022-08-03T06:31:59.254Z,27.77
2022-08-03T06:36:01.744Z,28.55
2022-08-03T06:40:04.193Z,26.70
2022-08-03T06:44:06.475Z,26.77
2022-08-03T06:48:11.910Z,29.15
2022-08-03T06:52:14.299Z,24.63
2022-08-03T06:56:36.537Z,26.50
2022-08-03T07:00:39.160Z,27.00
2022-08-03T07:04:41.159Z,31.60
2022-08-03T07:08:43.536Z,28.70
2022-08-03T07:12:55.597Z,26.38
2022-08-03T07:16:58.576Z,22.02
2022-08-03T07:21:00.587Z,31.80
2022-08-03T07:25:03.306Z,23.73
2022-08-03T07:29:14.829Z,26.60
2022-08-03T07:33:17.815Z,28.08
2022-08-03T07:37:19.931Z,19.23
2022-08-03T07:41:22.389Z,33.50
2022-08-03T07:45:24.685Z,28.58
2022-08-03T07:49:26.988Z,29.13
2022-08-03T07:53:29.085Z,23.55
2022-08-03T07:57:31.346Z,20.38
2022-08-03T08:01:36.724Z,23.13
2022-08-03T08:05:39.022Z,18.67
2022-08-03T08:09:41.051Z,25.00
2022-08-03T08:13:43.271Z,25.65
2022-08-03T08:17:48.584Z,20.67
2022-08-03T08:21:53.162Z,19.98
2022-08-03T08:26:04.250Z,20.05
2022-08-03T08:30:11.465Z,15.80
2022-08-03T08:38:17.207Z,20.95
2022-08-03T08:42:19.384Z,18.80
2022-08-03T08:46:23.092Z,17.75
2022-08-03T08:50:27.691Z,11.38
2022-08-03T08:54:33.365Z,16.05
2022-08-03T08:58:38.902Z,12.18
2022-08-03T09:02:45.655Z,14.98
2022-08-03T09:07:10.574Z,12.02
2022-08-03T09:11:11.946Z,9.52
2022-08-03T09:15:23.030Z,7.75
2022-08-03T09:19:25.352Z,6.80
2022-08-03T09:24:01.588Z,5.82
2022-08-03T09:28:10.827Z,8.07
2022-08-03T09:32:13.599Z,10.90
2022-08-03T09:36:37.405Z,7.57
2022-08-03T09:40:40.578Z,11.82
2022-08-03T09:44:46.719Z,7.13
2022-08-03T09:48:48.804Z,9.73
2022-08-03T09:52:52.841Z,8.20
2022-08-03T09:56:55.173Z,14.13
2022-08-03T10:01:00.276Z,12.35
2022-08-03T10:05:02.965Z,10.43
2022-08-03T10:09:10.778Z,13.90
2022-08-03T10:13:18.090Z,11.23
2022-08-03T10:17:24.717Z,7.55
2022-08-03T10:21:32.550Z,9.27
2022-08-03T10:25:38.551Z,10.65
2022-08-03T10:29:48.494Z,6.30
2022-08-03T10:33:53.331Z,10.60
2022-08-03T10:38:06.954Z,8.85
2022-08-03T10:42:10.780Z,8.52
2022-08-03T10:46:20.727Z,11.47
2022-08-03T10:50:25.163Z,8.82
2022-08-03T10:54:59.671Z,8.05
2022-08-03T10:59:03.795Z,7.07
2022-08-03T11:03:14.658Z,10.38
2022-08-03T11:07:22.398Z,9.82
2022-08-03T11:11:47.503Z,17.20
2022-08-03T11:15:59.710Z,7.85
2022-08-03T11:20:05.428Z,7.78
2022-08-03T11:24:08.102Z,10.23
2022-08-03T11:28:27.201Z,12.93
2022-08-03T11:32:38.492Z,6.05
2022-08-03T11:37:18.116Z,6.60
2022-08-03T11:41:42.731Z,8.52
2022-08-03T11:46:29.679Z,8.75
2022-08-03T11:50:38.426Z,10.27
2022-08-03T11:54:41.004Z,8.35
2022-08-03T11:59:15.008Z,6.65
2022-08-03T12:03:17.220Z,7.35
2022-08-03T12:07:25.002Z,8.27
2022-08-03T12:11:59.545Z,6.80
2022-08-03T12:16:03.331Z,7.05
2022-08-03T12:20:07.696Z,5.38
2022-08-03T12:24:10.336Z,6.65
2022-08-03T12:28:36.295Z,10.20
2022-08-03T12:32:39.887Z,6.95
2022-08-03T12:36:56.997Z,8.80
2022-08-03T12:41:01.610Z,7.70
2022-08-03T12:45:23.700Z,7.32
2022-08-03T12:49:26.617Z,9.70
2022-08-03T12:53:30.221Z,5.90
2022-08-03T12:57:42.362Z,7.28
2022-08-03T13:01:54.894Z,7.97
2022-08-03T13:05:59.018Z,4.10
2022-08-03T13:10:04.930Z,9.60
2022-08-03T13:14:10.068Z,4.97
2022-08-03T13:18:19.524Z,9.15
2022-08-03T13:22:24.414Z,4.78
2022-08-03T13:26:26.451Z,6.68
2022-08-03T13:30:30.141Z,8.02
2022-08-03T13:34:32.745Z,4.47
2022-08-03T13:38:35.089Z,5.97
2022-08-03T13:42:38.988Z,8.50
2022-08-03T13:46:41.537Z,6.55
2022-08-03T13:50:43.637Z,6.53
2022-08-03T13:54:47.099Z,7.13
2022-08-03T13:58:49.248Z,8.38
2022-08-03T14:02:52.017Z,9.65
2022-08-03T14:06:54.051Z,11.15
2022-08-03T14:10:56.290Z,9.63
2022-08-03T14:15:01.217Z,7.68
2022-08-03T14:19:05.086Z,10.82
2022-08-03T14:23:07.328Z,7.13
2022-08-03T14:27:09.764Z,9.35
2022-08-03T14:32:10.071Z,5.85
2022-08-03T14:35:34.545Z,6.00
2022-08-03T14:44:01.111Z,10.05
2022-08-03T14:50:29.095Z,8.18
2022-08-03T14:52:27.491Z,5.63
2022-08-03T14:56:29.569Z,6.53
2022-08-03T15:00:35.926Z,12.93
2022-08-03T15:04:38.017Z,7.20
2022-08-03T15:08:40.320Z,8.07
2022-08-03T15:12:42.384Z,8.63
2022-08-03T15:16:44.662Z,7.22
2022-08-03T15:20:47.323Z,8.55
2022-08-03T15:24:50.662Z,11.27
2022-08-03T15:28:52.738Z,9.57
2022-08-03T15:32:55.045Z,10.63
2022-08-03T15:36:57.123Z,11.80
2022-08-03T15:40:59.574Z,9.80
2022-08-03T15:45:01.811Z,7.95
2022-08-03T15:49:04.170Z,5.45
2022-08-03T15:53:06.239Z,10.45
2022-08-03T15:57:08.467Z,7.20
2022-08-03T16:01:15.282Z,5.55
2022-08-03T16:05:20.210Z,7.82
2022-08-03T16:09:23.369Z,9.80
2022-08-03T16:14:12.964Z,12.40
2022-08-03T16:18:07.635Z,6.05
2022-08-03T16:22:09.899Z,5.93
2022-08-03T16:26:12.686Z,5.18
2022-08-03T16:30:16.909Z,7.80
2022-08-03T16:34:19.094Z,5.10
2022-08-03T16:38:21.520Z,5.85
2022-08-03T16:42:23.644Z,6.97
2022-08-03T16:46:26.056Z,6.07
2022-08-03T16:50:28.371Z,9.27
2022-08-03T16:54:30.610Z,8.43
2022-08-03T16:58:41.254Z,8.13
2022-08-03T17:02:48.182Z,10.93
2022-08-03T17:06:50.535Z,12.70
2022-08-03T17:10:53.079Z,7.78
2022-08-03T17:14:55.257Z,9.15
2022-08-03T17:19:03.959Z,8.70
2022-08-03T17:23:35.778Z,9.77
2022-08-03T17:28:49.398Z,7.20
2022-08-03T17:32:06.529Z,13.10
2022-08-03T17:36:13.717Z,7.90
2022-08-03T17:40:18.918Z,12.05
2022-08-03T17:44:31.178Z,8.00
2022-08-03T17:48:41.239Z,11.77
2022-08-03T17:52:48.477Z,8.38
2022-08-03T17:57:22.498Z,7.25
2022-08-03T18:02:15.372Z,12.57
2022-08-03T18:06:31.127Z,10.15
2022-08-03T18:10:35.892Z,21.83
2022-08-03T18:15:00.692Z,27.60
2022-08-03T18:23:36.416Z,12.85
2022-08-03T18:27:45.482Z,16.30
2022-08-03T18:32:02.794Z,9.73
2022-08-03T18:36:09.508Z,11.45
2022-08-03T18:40:12.630Z,18.73
2022-08-03T18:44:38.108Z,16.77
2022-08-03T18:49:14.364Z,13.02
2022-08-03T18:53:21.582Z,12.52
2022-08-03T18:57:34.824Z,13.98
2022-08-03T19:01:59.160Z,12.05
2022-08-03T19:06:13.251Z,11.60
2022-08-03T19:10:25.716Z,13.82
2022-08-03T19:14:41.645Z,11.93
2022-08-03T19:18:50.298Z,13.45
2022-08-03T19:22:54.616Z,15.20
2022-08-03T19:26:58.925Z,16.30
2022-08-03T19:31:06.551Z,18.25
2022-08-03T19:35:13.267Z,19.15
2022-08-03T19:39:16.140Z,17.17
2022-08-03T19:43:32.917Z,17.63
2022-08-03T19:48:08.023Z,19.70
2022-08-03T19:52:14.500Z,17.00
2022-08-03T19:56:24.048Z,17.17
2022-08-03T20:00:30.642Z,18.88
2022-08-03T20:04:40.603Z,17.48
2022-08-03T20:08:44.176Z,18.48
2022-08-03T20:12:47.826Z,19.00
2022-08-03T20:16:52.274Z,20.13
2022-08-03T20:20:56.128Z,17.25
2022-08-03T20:25:02.891Z,17.35
2022-08-03T20:29:10.040Z,17.77
2022-08-03T20:33:12.605Z,16.55
2022-08-03T20:37:21.167Z,18.77
2022-08-03T20:41:23.751Z,22.75
2022-08-03T20:46:00.735Z,19.70
2022-08-03T20:49:48.111Z,20.25
2022-08-03T20:54:00.360Z,15.85
2022-08-03T20:58:04.858Z,15.98
2022-08-03T21:02:07.262Z,16.40
2022-08-03T21:06:18.040Z,19.77
2022-08-03T21:10:32.647Z,18.13
2022-08-03T21:13:05.735Z,15.52
2022-08-03T21:14:50.346Z,15.90
2022-08-03T21:22:58.506Z,16.55
2022-08-03T21:27:00.884Z,15.82
2022-08-03T21:31:03.925Z,15.18
2022-08-03T21:35:09.339Z,13.40
2022-08-03T21:39:12.034Z,11.82
2022-08-03T21:43:14.140Z,17.60
2022-08-03T21:47:17.723Z,12.70
2022-08-03T21:51:23.956Z,11.70
2022-08-03T21:55:28.695Z,11.88
2022-08-03T21:59:35.165Z,14.23
2022-08-03T22:03:52.940Z,10.90
2022-08-03T22:07:56.924Z,14.45
2022-08-03T22:11:59.156Z,13.77
2022-08-03T22:16:01.432Z,14.55
2022-08-03T22:20:07.362Z,14.02
2022-08-03T22:24:13.574Z,14.20
2022-08-03T22:28:16.608Z,12.00
2022-08-03T22:32:18.936Z,12.30
2022-08-03T22:36:24.069Z,13.25
2022-08-03T22:40:28.158Z,14.70
2022-08-03T22:44:31.831Z,13.63
2022-08-03T22:48:36.613Z,14.02
2022-08-03T22:52:45.297Z,13.23
2022-08-03T22:56:47.604Z,15.25
2022-08-03T23:01:03.768Z,11.98
2022-08-03T23:05:11.046Z,17.58
2022-08-03T23:09:32.677Z,16.20
2022-08-03T23:13:36.127Z,14.48
2022-08-03T23:17:57.591Z,15.68
2022-08-03T23:22:04.178Z,19.67
2022-08-03T23:26:18.288Z,11.15
2022-08-03T23:30:31.562Z,12.60
2022-08-03T23:34:53.511Z,16.77
2022-08-03T23:38:55.781Z,14.95
2022-08-03T23:43:00.429Z,14.93
2022-08-03T23:47:02.572Z,14.77
2022-08-03T23:51:10.525Z,13.75
2022-08-03T23:55:16.952Z,13.77
